Terminal Aerodrome Forecast
Issued by NWS Detroit/Pontiac, MI

Home | Current Version | Previous Version | Text Only | Print | Product List | Glossary On
Versions: 1 2 3 4 5 6 7 8 9 10 11 12 13 14 15 16 17 18 19 20 21 22 23 24 25 26 27 28 29 30 31 32 33 34
000
FTUS43 KDTX 232320
TAFDTW
TAF
KDTW 232320Z 2400/2506 02005KT 2SM BR OVC006
     FM240200 01003KT 3/4SM -DZ BR OVC003
     FM240700 VRB03KT 1SM BR OVC004
     FM241400 30004KT 2SM BR OVC008
     FM241800 26005KT 6SM BR OVC018=

USA.gov is the U.S. government's official web portal to all federal, state and local government web resources and services.